createdAt,value
2018-07-05T00:04:51.661Z,22.80
2018-07-05T00:07:32.222Z,22.90
2018-07-05T00:10:12.784Z,22.90
2018-07-05T00:12:53.608Z,22.90
2018-07-05T00:15:34.060Z,22.80
2018-07-05T00:18:14.739Z,22.80
2018-07-05T00:20:55.389Z,22.70
2018-07-05T00:23:36.008Z,22.60
2018-07-05T00:28:51.339Z,22.40
2018-07-05T00:31:31.887Z,22.40
2018-07-05T00:34:12.427Z,22.30
2018-07-05T00:36:53.168Z,22.20
2018-07-05T00:39:33.651Z,22.10
2018-07-05T00:42:14.203Z,22.00
2018-07-05T00:44:54.667Z,21.90
2018-07-05T00:47:35.283Z,22.00
2018-07-05T00:50:15.845Z,22.00
2018-07-05T00:52:56.296Z,22.00
2018-07-05T00:55:36.668Z,22.00
2018-07-05T00:58:17.132Z,22.00
2018-07-05T01:00:57.420Z,22.00
2018-07-05T01:03:37.788Z,21.90
2018-07-05T01:06:18.249Z,21.80
2018-07-05T01:08:58.830Z,21.80
2018-07-05T01:11:39.459Z,21.80
2018-07-05T01:14:19.914Z,21.80
2018-07-05T01:17:00.403Z,21.70
2018-07-05T01:19:40.940Z,21.70
2018-07-05T01:22:21.473Z,21.60
2018-07-05T01:25:01.860Z,21.50
2018-07-05T01:27:42.206Z,21.30
2018-07-05T01:30:22.608Z,21.30
2018-07-05T01:33:03.145Z,21.20
2018-07-05T01:35:43.695Z,21.20
2018-07-05T01:38:24.230Z,21.00
2018-07-05T01:41:04.813Z,21.00
2018-07-05T01:43:45.297Z,21.00
2018-07-05T01:46:25.816Z,21.00
2018-07-05T01:49:06.330Z,20.90
2018-07-05T01:51:47.025Z,20.80
2018-07-05T01:54:27.563Z,20.80
2018-07-05T01:57:07.991Z,20.80
2018-07-05T01:59:48.544Z,20.70
2018-07-05T02:02:29.058Z,20.60
2018-07-05T02:05:09.622Z,20.60
2018-07-05T02:07:50.204Z,20.50
2018-07-05T02:10:30.731Z,20.50
2018-07-05T02:13:11.289Z,20.50
2018-07-05T02:15:51.853Z,20.40
2018-07-05T02:18:32.358Z,20.40
2018-07-05T02:21:12.905Z,20.40
2018-07-05T02:26:27.808Z,20.30
2018-07-05T02:29:08.357Z,20.20
2018-07-05T02:31:48.915Z,20.10
2018-07-05T02:34:29.487Z,20.00
2018-07-05T02:37:14.275Z,20.00
2018-07-05T02:39:54.821Z,19.90
2018-07-05T02:42:35.380Z,19.80
2018-07-05T02:45:15.904Z,19.70
2018-07-05T02:48:02.487Z,19.70
2018-07-05T02:50:43.103Z,19.70
2018-07-05T02:53:23.588Z,19.60
2018-07-05T02:56:03.979Z,19.40
2018-07-05T02:58:44.298Z,19.40
2018-07-05T03:01:24.691Z,19.30
2018-07-05T03:04:05.201Z,19.20
2018-07-05T03:06:45.822Z,19.10
2018-07-05T03:09:26.357Z,19.00
2018-07-05T03:12:06.888Z,18.90
2018-07-05T03:14:47.238Z,18.80
2018-07-05T03:17:27.800Z,18.70
2018-07-05T03:20:08.436Z,18.70
2018-07-05T03:22:48.812Z,18.60
2018-07-05T03:25:29.392Z,18.60
2018-07-05T03:28:09.925Z,18.60
2018-07-05T03:30:50.368Z,18.60
2018-07-05T03:33:30.898Z,18.50
2018-07-05T03:36:11.386Z,18.50
2018-07-05T03:38:52.043Z,18.40
2018-07-05T03:41:32.507Z,18.40
2018-07-05T03:44:12.989Z,18.40
2018-07-05T03:46:53.599Z,18.30
2018-07-05T03:49:34.155Z,18.20
2018-07-05T03:52:14.651Z,18.30
2018-07-05T03:54:55.087Z,18.30
2018-07-05T03:57:35.820Z,18.30
2018-07-05T04:00:16.430Z,18.40
2018-07-05T04:02:57.011Z,18.50
2018-07-05T04:05:37.591Z,18.50
2018-07-05T04:08:18.294Z,18.50
2018-07-05T04:10:58.629Z,18.50
2018-07-05T04:13:39.094Z,18.50
2018-07-05T04:16:19.712Z,18.50
2018-07-05T04:19:00.307Z,18.40
2018-07-05T04:21:40.869Z,18.40
2018-07-05T04:24:21.419Z,18.50
2018-07-05T04:27:01.660Z,18.50
2018-07-05T04:29:42.082Z,18.60
2018-07-05T04:32:22.578Z,18.60
2018-07-05T04:35:03.104Z,18.70
2018-07-05T04:37:43.714Z,18.80
2018-07-05T04:40:24.196Z,18.80
2018-07-05T04:43:04.704Z,18.90
2018-07-05T04:45:45.203Z,19.00
2018-07-05T04:48:25.683Z,19.00
2018-07-05T04:51:06.294Z,19.00
2018-07-05T04:53:46.962Z,19.10
2018-07-05T04:56:27.379Z,19.10
2018-07-05T04:59:07.788Z,19.10
2018-07-05T05:01:48.208Z,19.20
2018-07-05T05:04:28.639Z,19.20
2018-07-05T05:07:09.198Z,19.30
2018-07-05T05:09:49.840Z,19.40
2018-07-05T05:12:30.379Z,19.50
2018-07-05T05:15:10.811Z,19.50
2018-07-05T05:20:25.727Z,19.80
2018-07-05T05:23:06.262Z,20.20
2018-07-05T05:25:46.799Z,20.40
2018-07-05T05:28:27.226Z,20.50
2018-07-05T05:31:07.650Z,20.40
2018-07-05T05:33:47.987Z,20.30
2018-07-05T05:36:28.401Z,20.40
2018-07-05T05:39:08.847Z,20.50
2018-07-05T05:41:49.178Z,20.60
2018-07-05T05:44:29.515Z,20.80
2018-07-05T05:47:10.124Z,20.90
2018-07-05T05:49:50.596Z,21.00
2018-07-05T05:52:31.153Z,21.00
2018-07-05T05:55:11.679Z,21.10
2018-07-05T05:57:52.185Z,21.30
2018-07-05T06:00:32.717Z,21.20
2018-07-05T06:03:13.315Z,21.10
2018-07-05T06:05:53.795Z,20.90
2018-07-05T06:08:34.213Z,20.90
2018-07-05T06:11:14.599Z,21.00
2018-07-05T06:13:55.056Z,21.00
2018-07-05T06:16:35.460Z,21.00
2018-07-05T06:19:15.839Z,21.10
2018-07-05T06:21:56.436Z,21.00
2018-07-05T06:24:37.074Z,20.90
2018-07-05T06:27:17.615Z,21.00
2018-07-05T06:29:58.286Z,21.10
2018-07-05T06:32:38.686Z,21.10
2018-07-05T06:35:19.540Z,21.10
2018-07-05T06:38:00.259Z,21.20
2018-07-05T06:40:40.751Z,21.10
2018-07-05T06:43:21.175Z,21.10
2018-07-05T06:46:01.614Z,21.00
2018-07-05T06:48:42.059Z,21.00
2018-07-05T06:51:22.516Z,21.10
2018-07-05T06:54:03.095Z,21.20
2018-07-05T06:56:43.511Z,21.40
2018-07-05T06:59:23.986Z,21.50
2018-07-05T07:02:04.481Z,21.70
2018-07-05T07:04:45.040Z,21.80
2018-07-05T07:07:25.613Z,21.90
2018-07-05T07:10:06.265Z,21.90
2018-07-05T07:12:46.786Z,21.90
2018-07-05T07:15:27.240Z,22.00
2018-07-05T07:18:07.655Z,22.00
2018-07-05T07:20:48.337Z,22.10
2018-07-05T07:23:29.319Z,22.10
2018-07-05T07:26:09.819Z,22.20
2018-07-05T07:28:50.378Z,22.30
2018-07-05T07:31:30.863Z,22.40
2018-07-05T07:34:11.323Z,22.50
2018-07-05T07:36:51.682Z,22.60
2018-07-05T07:39:32.159Z,22.70
2018-07-05T07:42:00.236Z,22.90
2018-07-05T07:44:28.454Z,23.00
2018-07-05T07:46:56.670Z,23.00
2018-07-05T07:49:24.760Z,23.00
2018-07-05T07:51:52.977Z,23.00
2018-07-05T07:54:21.155Z,23.00
2018-07-05T07:56:49.340Z,23.00
2018-07-05T07:59:17.401Z,23.20
2018-07-05T08:01:45.485Z,23.40
2018-07-05T08:04:13.642Z,23.50
2018-07-05T08:06:41.672Z,23.60
2018-07-05T08:09:09.679Z,23.80
2018-07-05T08:11:37.734Z,23.90
2018-07-05T08:14:06.187Z,23.90
2018-07-05T08:16:34.280Z,23.90
2018-07-05T08:19:02.356Z,23.90
2018-07-05T08:21:30.387Z,24.00
2018-07-05T08:23:58.523Z,24.20
2018-07-05T08:26:26.562Z,24.20
2018-07-05T08:28:54.653Z,24.20
2018-07-05T08:31:22.829Z,24.20
2018-07-05T08:33:50.948Z,24.30
2018-07-05T08:36:18.979Z,24.40
2018-07-05T08:38:47.045Z,24.50
2018-07-05T08:41:15.119Z,24.70
2018-07-05T08:43:43.134Z,24.80
2018-07-05T08:46:11.176Z,24.80
2018-07-05T08:48:39.234Z,24.70
2018-07-05T08:51:07.393Z,24.80
2018-07-05T08:53:35.411Z,24.70
2018-07-05T08:56:03.433Z,24.80
2018-07-05T08:58:31.475Z,24.90
2018-07-05T09:00:59.522Z,25.10
2018-07-05T09:03:27.575Z,25.10
2018-07-05T09:05:55.645Z,25.10
2018-07-05T09:08:23.731Z,25.00
2018-07-05T09:10:51.869Z,25.00
2018-07-05T09:13:19.956Z,24.90
2018-07-05T09:15:48.674Z,25.10
2018-07-05T09:18:16.739Z,25.30
2018-07-05T09:20:44.734Z,25.30
2018-07-05T09:23:13.357Z,25.50
2018-07-05T09:25:42.202Z,25.50
2018-07-05T09:28:10.252Z,25.60
2018-07-05T09:30:38.291Z,25.70
2018-07-05T09:33:06.314Z,25.90
2018-07-05T09:35:34.369Z,26.10
2018-07-05T09:38:02.411Z,26.20
2018-07-05T09:40:30.588Z,26.30
2018-07-05T09:42:58.641Z,26.20
2018-07-05T09:45:26.685Z,26.30
2018-07-05T09:47:54.735Z,26.30
2018-07-05T09:50:22.727Z,26.20
2018-07-05T09:52:50.950Z,26.00
2018-07-05T09:55:18.923Z,26.00
2018-07-05T09:57:46.958Z,25.90
2018-07-05T10:00:15.015Z,26.10
2018-07-05T10:02:43.027Z,26.20
2018-07-05T10:05:11.176Z,26.10
2018-07-05T10:07:39.219Z,26.00
2018-07-05T10:10:07.273Z,26.20
2018-07-05T10:12:35.331Z,26.40
2018-07-05T10:15:03.450Z,26.40
2018-07-05T10:17:31.473Z,26.60
2018-07-05T10:19:59.602Z,26.70
2018-07-05T10:22:27.618Z,26.70
2018-07-05T10:24:55.658Z,26.90
2018-07-05T10:27:24.871Z,27.00
2018-07-05T10:30:05.432Z,27.10
2018-07-05T10:32:46.058Z,27.20
2018-07-05T10:35:14.023Z,27.10
2018-07-05T10:37:42.064Z,27.20
2018-07-05T10:40:22.583Z,27.20
2018-07-05T10:43:03.131Z,27.20
2018-07-05T10:45:43.656Z,27.20
2018-07-05T10:48:24.204Z,27.00
2018-07-05T10:51:04.703Z,27.00
2018-07-05T10:53:45.171Z,27.10
2018-07-05T10:56:25.716Z,27.30
2018-07-05T10:59:06.478Z,27.10
2018-07-05T11:01:47.795Z,26.70
2018-07-05T11:04:28.294Z,26.80
2018-07-05T11:07:08.848Z,26.90
2018-07-05T11:09:49.355Z,27.10
2018-07-05T11:12:29.831Z,27.30
2018-07-05T11:15:10.199Z,27.20
2018-07-05T11:17:50.547Z,27.30
2018-07-05T11:20:31.456Z,27.40
2018-07-05T11:23:11.875Z,27.30
2018-07-05T11:25:52.487Z,27.20
2018-07-05T11:28:33.147Z,27.30
2018-07-05T11:31:13.696Z,27.20
2018-07-05T11:33:54.230Z,27.10
2018-07-05T11:36:34.765Z,27.20
2018-07-05T11:41:49.671Z,27.00
2018-07-05T11:44:30.142Z,27.10
2018-07-05T11:47:10.620Z,27.10
2018-07-05T11:49:51.072Z,27.30
2018-07-05T11:52:31.612Z,27.40
2018-07-05T11:55:12.134Z,27.50
2018-07-05T11:57:52.627Z,27.40
2018-07-05T12:00:33.089Z,27.50
2018-07-05T12:03:13.641Z,27.70
2018-07-05T12:05:54.251Z,27.80
2018-07-05T12:08:34.764Z,28.00
2018-07-05T12:11:15.583Z,27.90
2018-07-05T12:13:56.259Z,27.90
2018-07-05T12:16:36.806Z,28.00
2018-07-05T12:19:17.440Z,27.90
2018-07-05T12:21:57.978Z,27.90
2018-07-05T12:24:38.499Z,27.90
2018-07-05T12:27:18.978Z,27.90
2018-07-05T12:29:59.670Z,28.00
2018-07-05T12:32:40.164Z,28.20
2018-07-05T12:35:20.792Z,28.40
2018-07-05T12:38:01.503Z,28.40
2018-07-05T12:40:42.336Z,28.40
2018-07-05T12:43:22.998Z,28.30
2018-07-05T12:46:03.590Z,28.40
2018-07-05T12:48:44.067Z,28.40
2018-07-05T12:51:24.376Z,28.30
2018-07-05T12:54:04.996Z,28.20
2018-07-05T12:56:45.634Z,28.20
2018-07-05T12:59:26.149Z,28.50
2018-07-05T13:02:06.663Z,28.50
2018-07-05T13:04:47.063Z,28.60
2018-07-05T13:07:27.443Z,28.60
2018-07-05T13:10:07.870Z,28.70
2018-07-05T13:12:49.604Z,28.80
2018-07-05T13:15:30.248Z,29.10
2018-07-05T13:18:10.996Z,29.20
2018-07-05T13:20:51.455Z,29.20
2018-07-05T13:23:32.311Z,29.20
2018-07-05T13:26:13.011Z,29.40
2018-07-05T13:28:53.435Z,29.40
2018-07-05T13:31:34.020Z,29.20
2018-07-05T13:34:14.479Z,29.10
2018-07-05T13:36:55.072Z,29.30
2018-07-05T13:39:35.438Z,29.40
2018-07-05T13:42:15.967Z,29.50
2018-07-05T13:44:56.664Z,29.50
2018-07-05T13:47:37.543Z,29.50
2018-07-05T13:50:18.472Z,29.40
2018-07-05T13:52:59.219Z,29.30
2018-07-05T13:55:39.822Z,29.40
2018-07-05T13:58:20.511Z,29.40
2018-07-05T14:01:00.960Z,29.20
2018-07-05T14:03:41.315Z,29.10
2018-07-05T14:06:21.912Z,29.50
2018-07-05T14:09:02.332Z,29.60
2018-07-05T14:11:42.672Z,29.50
2018-07-05T14:14:23.229Z,29.50
2018-07-05T14:17:03.748Z,29.50
2018-07-05T14:19:44.394Z,29.40
2018-07-05T14:22:24.778Z,29.50
2018-07-05T14:25:05.568Z,29.30
2018-07-05T14:27:46.068Z,29.00
2018-07-05T14:30:26.600Z,28.90
2018-07-05T14:33:07.118Z,29.00
2018-07-05T14:35:47.831Z,29.00
2018-07-05T14:38:28.252Z,29.10
2018-07-05T14:41:08.642Z,29.10
2018-07-05T14:43:49.148Z,29.10
2018-07-05T14:49:04.004Z,29.30
2018-07-05T14:51:44.471Z,29.30
2018-07-05T14:54:24.866Z,29.40
2018-07-05T14:57:05.311Z,29.40
2018-07-05T14:59:45.901Z,29.50
2018-07-05T15:02:26.156Z,29.60
2018-07-05T15:05:06.558Z,29.60
2018-07-05T15:07:47.043Z,29.80
2018-07-05T15:10:27.720Z,30.10
2018-07-05T15:13:08.338Z,30.30
2018-07-05T15:15:49.005Z,30.50
2018-07-05T15:18:29.640Z,30.90
2018-07-05T15:21:10.139Z,30.30
2018-07-05T15:23:50.506Z,30.60
2018-07-05T15:26:30.828Z,31.50
2018-07-05T15:29:11.203Z,31.70
2018-07-05T15:31:51.699Z,32.00
2018-07-05T15:34:32.547Z,31.20
2018-07-05T15:37:13.010Z,31.40
2018-07-05T15:39:53.414Z,31.40
2018-07-05T15:42:33.935Z,31.30
2018-07-05T15:45:14.319Z,31.80
2018-07-05T15:47:54.751Z,32.10
2018-07-05T15:50:35.325Z,30.00
2018-07-05T15:53:15.976Z,29.60
2018-07-05T15:55:56.500Z,29.70
2018-07-05T15:58:36.889Z,30.60
2018-07-05T16:01:17.346Z,31.90
2018-07-05T16:03:57.936Z,32.80
2018-07-05T16:06:38.518Z,32.80
2018-07-05T16:09:19.189Z,33.00
2018-07-05T16:11:59.631Z,33.20
2018-07-05T16:14:40.267Z,33.30
2018-07-05T16:17:20.835Z,33.70
2018-07-05T16:20:01.332Z,34.20
2018-07-05T16:22:41.996Z,34.50
2018-07-05T16:25:22.647Z,34.50
2018-07-05T16:28:03.137Z,33.40
2018-07-05T16:30:43.603Z,32.90
2018-07-05T16:33:24.019Z,33.20
2018-07-05T16:36:04.708Z,33.80
2018-07-05T16:38:45.154Z,33.90
2018-07-05T16:41:25.563Z,34.40
2018-07-05T16:44:06.058Z,34.80
2018-07-05T16:46:46.534Z,34.60
2018-07-05T16:49:26.965Z,34.40
2018-07-05T16:52:07.348Z,34.50
2018-07-05T16:54:48.223Z,34.30
2018-07-05T16:57:28.766Z,33.60
2018-07-05T17:00:09.857Z,33.60
2018-07-05T17:02:50.548Z,33.70
2018-07-05T17:05:30.871Z,33.60
2018-07-05T17:08:11.243Z,33.70
2018-07-05T17:10:52.764Z,33.40
2018-07-05T17:13:33.068Z,33.80
2018-07-05T17:16:13.497Z,33.30
2018-07-05T17:18:53.995Z,33.40
2018-07-05T17:21:34.382Z,33.80
2018-07-05T17:24:15.075Z,34.10
2018-07-05T17:26:55.678Z,33.20
2018-07-05T17:29:36.180Z,32.90
2018-07-05T17:32:16.833Z,32.90
2018-07-05T17:34:57.557Z,32.90
2018-07-05T17:37:38.217Z,33.20
2018-07-05T17:40:18.799Z,32.70
2018-07-05T17:42:59.323Z,33.10
2018-07-05T17:45:39.951Z,33.00
2018-07-05T17:48:20.472Z,32.80
2018-07-05T17:51:01.267Z,33.10
2018-07-05T17:53:41.871Z,32.70
2018-07-05T17:56:22.492Z,32.50
2018-07-05T17:59:03.993Z,32.50
2018-07-05T18:01:44.643Z,32.50
2018-07-05T18:04:25.055Z,31.40
2018-07-05T18:07:05.506Z,29.80
2018-07-05T18:09:45.875Z,28.50
2018-07-05T18:12:26.410Z,27.50
2018-07-05T18:15:07.059Z,27.00
2018-07-05T18:17:47.538Z,26.80
2018-07-05T18:20:28.214Z,26.30
2018-07-05T18:23:08.530Z,26.10
2018-07-05T18:25:49.539Z,25.80
2018-07-05T18:28:29.879Z,25.30
2018-07-05T18:31:10.408Z,25.20
2018-07-05T18:33:50.988Z,25.10
2018-07-05T18:36:31.539Z,25.10
2018-07-05T18:39:12.136Z,24.80
2018-07-05T18:41:52.685Z,24.60
2018-07-05T18:44:33.311Z,24.50
2018-07-05T18:47:14.007Z,24.40
2018-07-05T18:49:54.475Z,24.20
2018-07-05T18:52:34.845Z,24.20
2018-07-05T18:55:15.287Z,24.10
2018-07-05T18:57:55.695Z,24.00
2018-07-05T19:00:36.219Z,23.80
2018-07-05T19:03:16.706Z,23.70
2018-07-05T19:05:57.140Z,23.60
2018-07-05T19:08:37.535Z,23.50
2018-07-05T19:11:17.974Z,23.40
2018-07-05T19:13:58.543Z,23.30
2018-07-05T19:16:39.066Z,23.20
2018-07-05T19:19:19.359Z,23.10
2018-07-05T19:21:59.774Z,23.00
2018-07-05T19:24:40.076Z,22.90
2018-07-05T19:27:20.411Z,22.60
2018-07-05T19:30:00.879Z,22.50
2018-07-05T19:32:41.300Z,22.40
2018-07-05T19:35:21.803Z,22.30
2018-07-05T19:38:02.372Z,22.20
2018-07-05T19:43:17.379Z,21.90
2018-07-05T19:45:58.317Z,21.90
2018-07-05T19:48:38.956Z,21.70
2018-07-05T19:51:19.550Z,21.50
2018-07-05T19:54:00.077Z,21.40
2018-07-05T19:56:40.456Z,21.30
2018-07-05T19:59:20.698Z,21.20
2018-07-05T20:02:01.096Z,21.00
2018-07-05T20:04:41.544Z,21.00
2018-07-05T20:07:22.151Z,20.80
2018-07-05T20:10:02.680Z,20.70
2018-07-05T20:12:43.643Z,20.60
2018-07-05T20:15:24.004Z,20.50
2018-07-05T20:18:04.443Z,20.30
2018-07-05T20:20:44.716Z,20.20
2018-07-05T20:23:25.114Z,20.10
2018-07-05T20:26:05.534Z,20.00
2018-07-05T20:28:46.128Z,19.90
2018-07-05T20:31:26.790Z,19.80
2018-07-05T20:34:07.211Z,19.70
2018-07-05T20:36:49.953Z,19.60
2018-07-05T20:39:30.303Z,19.60
2018-07-05T20:42:10.839Z,19.60
2018-07-05T20:44:51.268Z,19.60
2018-07-05T20:47:31.684Z,19.50
2018-07-05T20:50:12.064Z,19.30
2018-07-05T20:52:52.392Z,19.20
2018-07-05T20:55:33.086Z,19.10
2018-07-05T20:58:13.635Z,19.00
2018-07-05T21:00:54.253Z,18.90
2018-07-05T21:03:34.671Z,18.90
2018-07-05T21:06:15.283Z,18.80
2018-07-05T21:08:55.779Z,18.70
2018-07-05T21:11:36.346Z,18.70
2018-07-05T21:14:16.862Z,18.70
2018-07-05T21:16:57.324Z,18.60
2018-07-05T21:19:38.169Z,18.60
2018-07-05T21:22:18.764Z,18.60
2018-07-05T21:24:59.283Z,18.50
2018-07-05T21:27:39.712Z,18.50
2018-07-05T21:30:20.107Z,18.50
2018-07-05T21:33:00.691Z,18.40
2018-07-05T21:35:41.022Z,18.40
2018-07-05T21:38:21.525Z,18.40
2018-07-05T21:41:02.051Z,18.30
2018-07-05T21:43:42.639Z,18.30
2018-07-05T21:46:23.406Z,18.30
2018-07-05T21:49:04.064Z,18.20
2018-07-05T21:51:44.640Z,18.20
2018-07-05T21:54:25.067Z,18.20
2018-07-05T21:57:05.720Z,18.10
2018-07-05T21:59:46.203Z,18.10
2018-07-05T22:02:26.724Z,18.00
2018-07-05T22:05:11.724Z,18.00
2018-07-05T22:07:53.739Z,17.90
2018-07-05T22:10:34.180Z,17.90
2018-07-05T22:13:14.750Z,17.90
2018-07-05T22:15:55.260Z,17.80
2018-07-05T22:18:41.082Z,17.80
2018-07-05T22:21:21.487Z,17.70
2018-07-05T22:24:07.688Z,17.70
2018-07-05T22:26:48.360Z,17.60
2018-07-05T22:29:35.204Z,17.60
2018-07-05T22:32:15.656Z,17.60
2018-07-05T22:34:56.396Z,17.60
2018-07-05T22:37:36.804Z,17.60
2018-07-05T22:40:17.208Z,17.50
2018-07-05T22:45:31.965Z,17.40
2018-07-05T22:48:12.430Z,17.40
2018-07-05T22:50:53.055Z,17.30
2018-07-05T22:53:33.626Z,17.20
2018-07-05T22:56:14.183Z,17.10
2018-07-05T22:58:54.615Z,17.10
2018-07-05T23:01:35.191Z,17.00
2018-07-05T23:04:15.811Z,16.90
2018-07-05T23:06:56.316Z,16.80
2018-07-05T23:09:36.926Z,16.70
2018-07-05T23:12:17.308Z,16.70
2018-07-05T23:14:57.739Z,16.60
2018-07-05T23:17:38.267Z,16.60
2018-07-05T23:20:18.804Z,16.60
2018-07-05T23:22:59.310Z,16.50
2018-07-05T23:25:39.812Z,16.50
2018-07-05T23:28:20.420Z,16.40
2018-07-05T23:31:00.991Z,16.30
2018-07-05T23:33:41.535Z,16.30
2018-07-05T23:36:22.199Z,16.20
2018-07-05T23:39:02.887Z,16.20
2018-07-05T23:41:43.544Z,16.10
2018-07-05T23:44:24.011Z,16.10
2018-07-05T23:47:04.703Z,16.10
2018-07-05T23:49:45.262Z,16.10
2018-07-05T23:52:25.787Z,16.10
2018-07-05T23:55:06.268Z,16.00
2018-07-05T23:57:46.667Z,16.00
